createdAt,value
2018-03-31T00:01:38.552Z,4.83
2018-03-31T00:04:05.146Z,5.50
2018-03-31T00:06:32.597Z,6.73
2018-03-31T00:08:59.163Z,7.27
2018-03-31T00:11:25.789Z,5.13
2018-03-31T00:13:53.092Z,5.03
2018-03-31T00:16:19.688Z,5.70
2018-03-31T00:18:47.064Z,6.53
2018-03-31T00:21:13.647Z,6.13
2018-03-31T00:23:40.226Z,4.50
2018-03-31T00:26:06.856Z,4.90
2018-03-31T00:28:34.197Z,3.50
2018-03-31T00:31:01.522Z,4.23
2018-03-31T00:33:28.101Z,4.07
2018-03-31T00:35:55.384Z,4.50
2018-03-31T00:38:21.929Z,5.03
2018-03-31T00:40:48.496Z,3.70
2018-03-31T00:43:15.188Z,3.73
2018-03-31T00:45:41.741Z,4.17
2018-03-31T00:48:08.379Z,4.00
2018-03-31T00:50:35.014Z,3.73
2018-03-31T00:53:01.583Z,3.97
2018-03-31T00:55:28.212Z,4.57
2018-03-31T00:57:54.757Z,3.70
2018-03-31T01:00:21.463Z,4.03
2018-03-31T01:02:48.037Z,4.33
2018-03-31T01:05:14.661Z,4.23
2018-03-31T01:07:41.302Z,4.70
2018-03-31T01:10:07.859Z,4.43
2018-03-31T01:12:35.166Z,3.60
2018-03-31T01:15:01.743Z,4.40
2018-03-31T01:17:29.261Z,4.43
2018-03-31T01:19:55.828Z,3.73
2018-03-31T01:22:22.484Z,6.47
2018-03-31T01:24:49.025Z,4.37
2018-03-31T01:27:16.368Z,6.17
2018-03-31T01:29:43.083Z,4.53
2018-03-31T01:32:09.868Z,5.33
2018-03-31T01:34:37.208Z,4.77
2018-03-31T01:37:04.032Z,3.97
2018-03-31T01:39:30.638Z,3.67
2018-03-31T01:41:57.252Z,4.37
2018-03-31T01:44:23.816Z,3.47
2018-03-31T01:46:50.372Z,4.83
2018-03-31T01:49:16.946Z,4.17
2018-03-31T01:51:44.283Z,4.00
2018-03-31T01:54:10.861Z,3.60
2018-03-31T01:56:37.424Z,4.60
2018-03-31T01:59:04.105Z,5.77
2018-03-31T02:01:30.659Z,4.03
2018-03-31T02:03:57.980Z,4.13
2018-03-31T02:06:24.813Z,3.87
2018-03-31T02:08:51.375Z,4.17
2018-03-31T02:11:18.058Z,5.87
2018-03-31T02:13:44.745Z,4.20
2018-03-31T02:16:11.293Z,4.53
2018-03-31T02:18:38.607Z,5.13
2018-03-31T02:21:05.425Z,4.17
2018-03-31T02:23:32.063Z,4.67
2018-03-31T02:25:58.620Z,5.07
2018-03-31T02:28:25.306Z,4.60
2018-03-31T02:30:52.929Z,4.80
2018-03-31T02:33:19.517Z,4.53
2018-03-31T02:35:46.254Z,5.07
2018-03-31T02:38:13.764Z,6.30
2018-03-31T02:40:40.356Z,5.73
2018-03-31T02:43:06.911Z,4.70
2018-03-31T02:45:33.702Z,5.27
2018-03-31T02:48:00.452Z,4.80
2018-03-31T02:50:27.114Z,5.57
2018-03-31T02:52:53.733Z,5.70
2018-03-31T02:55:21.107Z,5.40
2018-03-31T02:57:47.929Z,6.23
2018-03-31T03:00:15.259Z,6.93
2018-03-31T03:02:41.832Z,6.33
2018-03-31T03:05:09.326Z,6.27
2018-03-31T03:07:35.908Z,7.23
2018-03-31T03:10:02.571Z,6.40
2018-03-31T03:12:29.242Z,6.53
2018-03-31T03:14:56.127Z,7.03
2018-03-31T03:17:22.709Z,10.17
2018-03-31T03:19:49.357Z,8.63
2018-03-31T03:22:15.933Z,7.50
2018-03-31T03:24:42.613Z,9.03
2018-03-31T03:27:09.905Z,8.93
2018-03-31T03:29:36.476Z,7.63
2018-03-31T03:32:03.227Z,7.90
2018-03-31T03:34:30.604Z,8.90
2018-03-31T03:36:57.149Z,7.57
2018-03-31T03:39:23.762Z,8.30
2018-03-31T03:41:51.108Z,8.70
2018-03-31T03:44:18.500Z,8.90
2018-03-31T03:46:45.100Z,8.50
2018-03-31T03:49:12.489Z,8.80
2018-03-31T03:51:39.076Z,8.17
2018-03-31T03:54:05.664Z,8.20
2018-03-31T03:56:32.247Z,9.50
2018-03-31T03:58:58.819Z,9.67
2018-03-31T04:01:26.494Z,9.30
2018-03-31T04:03:53.044Z,8.83
2018-03-31T04:06:19.695Z,11.70
2018-03-31T04:08:46.374Z,10.40
2018-03-31T04:11:12.949Z,9.80
2018-03-31T04:13:39.545Z,9.00
2018-03-31T04:16:06.128Z,8.60
2018-03-31T04:18:32.719Z,10.07
2018-03-31T04:20:59.304Z,9.27
2018-03-31T04:23:25.980Z,9.27
2018-03-31T04:25:52.536Z,9.50
2018-03-31T04:28:19.845Z,10.93
2018-03-31T04:30:46.446Z,10.17
2018-03-31T04:33:13.755Z,9.73
2018-03-31T04:35:40.306Z,11.10
2018-03-31T04:38:06.875Z,9.33
2018-03-31T04:40:33.435Z,9.87
2018-03-31T04:43:00.024Z,10.53
2018-03-31T04:45:26.692Z,9.03
2018-03-31T04:47:53.266Z,9.23
2018-03-31T04:50:19.847Z,10.53
2018-03-31T04:52:47.246Z,9.23
2018-03-31T04:55:13.826Z,10.40
2018-03-31T04:57:40.554Z,9.37
2018-03-31T05:00:07.318Z,9.17
2018-03-31T05:02:34.712Z,10.87
2018-03-31T05:05:01.451Z,10.50
2018-03-31T05:07:28.058Z,11.33
2018-03-31T05:09:55.405Z,10.50
2018-03-31T05:12:22.040Z,9.90
2018-03-31T05:14:49.358Z,12.27
2018-03-31T05:17:16.780Z,10.33
2018-03-31T05:19:43.366Z,11.17
2018-03-31T05:22:09.929Z,11.33
2018-03-31T05:27:38.635Z,11.30
2018-03-31T05:30:05.943Z,10.50
2018-03-31T05:32:32.682Z,13.63
2018-03-31T05:34:59.214Z,11.93
2018-03-31T05:37:26.170Z,11.20
2018-03-31T05:39:53.673Z,12.63
2018-03-31T05:42:20.945Z,11.87
2018-03-31T05:44:47.676Z,11.97
2018-03-31T05:47:15.368Z,13.77
2018-03-31T05:49:42.010Z,13.27
2018-03-31T05:52:08.551Z,11.87
2018-03-31T05:54:35.122Z,12.80
2018-03-31T05:57:01.725Z,12.57
2018-03-31T05:59:28.299Z,12.70
2018-03-31T06:01:54.900Z,13.00
2018-03-31T06:04:22.346Z,12.07
2018-03-31T06:06:48.910Z,12.93
2018-03-31T06:09:15.693Z,12.43
2018-03-31T06:11:43.002Z,14.10
2018-03-31T06:14:09.588Z,14.17
2018-03-31T06:16:36.912Z,13.27
2018-03-31T06:19:03.487Z,12.60
2018-03-31T06:21:30.044Z,12.17
2018-03-31T06:23:56.777Z,13.33
2018-03-31T06:26:23.323Z,14.33
2018-03-31T06:28:50.694Z,13.13
2018-03-31T06:31:17.468Z,12.10
2018-03-31T06:33:43.996Z,13.37
2018-03-31T06:36:10.589Z,13.07
2018-03-31T06:38:37.135Z,11.87
2018-03-31T06:41:03.692Z,13.70
2018-03-31T06:43:30.654Z,12.50
2018-03-31T06:45:57.241Z,13.43
2018-03-31T06:48:23.781Z,14.33
2018-03-31T06:50:50.623Z,12.90
2018-03-31T06:53:17.384Z,12.37
2018-03-31T06:55:44.001Z,11.53
2018-03-31T06:58:10.651Z,12.43
2018-03-31T07:00:37.286Z,11.90
2018-03-31T07:03:04.589Z,11.90
2018-03-31T07:05:31.379Z,11.87
2018-03-31T07:07:58.054Z,13.53
2018-03-31T07:10:24.671Z,11.30
2018-03-31T07:12:51.212Z,11.23
2018-03-31T07:15:17.897Z,10.47
2018-03-31T07:17:45.362Z,11.73
2018-03-31T07:20:12.712Z,10.80
2018-03-31T07:22:40.067Z,11.23
2018-03-31T07:25:07.468Z,11.77
2018-03-31T07:27:34.134Z,12.70
2018-03-31T07:30:00.670Z,11.47
2018-03-31T07:32:27.415Z,11.80
2018-03-31T07:34:54.004Z,11.87
2018-03-31T07:37:20.618Z,10.07
2018-03-31T07:39:47.948Z,9.37
2018-03-31T07:42:14.724Z,10.63
2018-03-31T07:44:41.544Z,10.57
2018-03-31T07:47:08.925Z,8.93
2018-03-31T07:49:35.621Z,10.17
2018-03-31T07:52:02.204Z,9.80
2018-03-31T07:54:28.881Z,9.30
2018-03-31T07:56:55.472Z,8.47
2018-03-31T07:59:22.090Z,8.30
2018-03-31T08:01:49.391Z,10.87
2018-03-31T08:04:16.062Z,10.27
2018-03-31T08:06:43.618Z,7.50
2018-03-31T08:09:10.157Z,9.20
2018-03-31T08:11:36.695Z,7.90
2018-03-31T08:14:03.267Z,8.57
2018-03-31T08:16:30.565Z,8.00
2018-03-31T08:18:57.141Z,7.13
2018-03-31T08:21:24.507Z,7.20
2018-03-31T08:23:51.820Z,7.73
2018-03-31T08:26:18.413Z,7.73
2018-03-31T08:28:44.948Z,8.00
2018-03-31T08:31:11.557Z,8.43
2018-03-31T08:33:38.837Z,9.03
2018-03-31T08:36:05.377Z,7.93
2018-03-31T08:38:31.942Z,7.97
2018-03-31T08:40:58.638Z,8.03
2018-03-31T08:43:26.060Z,8.30
2018-03-31T08:45:52.650Z,7.20
2018-03-31T08:48:19.180Z,7.73
2018-03-31T08:50:45.868Z,7.33
2018-03-31T08:53:12.442Z,6.40
2018-03-31T08:55:39.708Z,6.87
2018-03-31T08:58:06.254Z,5.83
2018-03-31T09:00:32.949Z,6.23
2018-03-31T09:02:59.505Z,6.27
2018-03-31T09:05:26.878Z,4.50
2018-03-31T09:07:53.743Z,4.10
2018-03-31T09:10:20.451Z,3.23
2018-03-31T09:12:47.350Z,3.90
2018-03-31T09:15:13.936Z,3.93
2018-03-31T09:17:40.534Z,4.30
2018-03-31T09:20:07.116Z,4.30
2018-03-31T09:22:33.720Z,5.67
2018-03-31T09:25:00.400Z,3.80
2018-03-31T09:27:26.990Z,2.50
2018-03-31T09:29:53.632Z,7.50
2018-03-31T09:32:20.200Z,3.17
2018-03-31T09:34:46.853Z,3.50
2018-03-31T09:37:13.431Z,5.47
2018-03-31T09:39:40.025Z,3.57
2018-03-31T09:42:06.613Z,3.57
2018-03-31T09:44:33.262Z,3.53
2018-03-31T09:46:59.972Z,2.13
2018-03-31T09:49:26.539Z,3.67
2018-03-31T09:51:54.077Z,4.90
2018-03-31T09:54:20.725Z,5.77
2018-03-31T09:56:47.309Z,4.77
2018-03-31T09:59:14.131Z,3.87
2018-03-31T10:01:41.478Z,4.00
2018-03-31T10:04:08.804Z,4.27
2018-03-31T10:06:35.384Z,4.10
2018-03-31T10:09:02.920Z,4.07
2018-03-31T10:11:30.209Z,5.30
2018-03-31T10:13:56.790Z,4.33
2018-03-31T10:16:23.392Z,3.50
2018-03-31T10:18:49.968Z,3.90
2018-03-31T10:21:16.539Z,8.93
2018-03-31T10:23:43.914Z,4.30
2018-03-31T10:26:10.494Z,4.33
2018-03-31T10:28:37.265Z,5.97
2018-03-31T10:31:04.644Z,6.13
2018-03-31T10:33:31.227Z,4.10
2018-03-31T10:35:57.830Z,8.67
2018-03-31T10:38:24.399Z,7.37
2018-03-31T10:40:51.170Z,5.77
2018-03-31T10:43:18.790Z,4.70
2018-03-31T10:45:45.439Z,4.53
2018-03-31T10:48:12.096Z,6.07
2018-03-31T10:50:38.864Z,7.20
2018-03-31T10:53:06.220Z,7.93
2018-03-31T10:55:32.858Z,4.77
2018-03-31T10:58:00.153Z,4.90
2018-03-31T11:00:26.765Z,6.47
2018-03-31T11:02:53.429Z,6.83
2018-03-31T11:05:20.006Z,3.37
2018-03-31T11:07:46.598Z,2.63
2018-03-31T11:10:13.178Z,6.23
2018-03-31T11:12:39.758Z,6.27
2018-03-31T11:15:06.392Z,5.90
2018-03-31T11:17:33.004Z,5.50
2018-03-31T11:20:00.363Z,6.03
2018-03-31T11:22:27.698Z,8.83
2018-03-31T11:24:54.309Z,7.83
2018-03-31T11:27:21.008Z,5.47
2018-03-31T11:29:47.582Z,5.30
2018-03-31T11:32:14.329Z,7.87
2018-03-31T11:34:40.878Z,4.40
2018-03-31T11:37:07.453Z,5.60
2018-03-31T11:39:34.057Z,4.73
2018-03-31T11:42:00.623Z,4.03
2018-03-31T11:44:27.937Z,6.27
2018-03-31T11:46:54.695Z,3.57
2018-03-31T11:49:22.015Z,7.80
2018-03-31T11:51:48.595Z,6.67
2018-03-31T11:54:16.055Z,4.67
2018-03-31T11:56:43.389Z,4.30
2018-03-31T11:59:10.006Z,5.00
2018-03-31T12:01:36.588Z,3.03
2018-03-31T12:04:03.192Z,4.80
2018-03-31T12:06:29.777Z,4.90
2018-03-31T12:08:56.361Z,3.90
2018-03-31T12:11:22.948Z,3.13
2018-03-31T12:13:49.590Z,5.10
2018-03-31T12:16:16.164Z,6.13
2018-03-31T12:18:42.723Z,3.90
2018-03-31T12:21:09.309Z,5.47
2018-03-31T12:23:35.860Z,6.50
2018-03-31T12:26:02.455Z,2.83
2018-03-31T12:28:29.743Z,4.30
2018-03-31T12:30:56.321Z,5.40
2018-03-31T12:33:22.948Z,3.10
2018-03-31T12:35:49.572Z,2.80
2018-03-31T12:38:16.176Z,3.93
2018-03-31T12:40:42.760Z,4.03
2018-03-31T12:43:09.321Z,3.30
2018-03-31T12:45:35.949Z,4.53
2018-03-31T12:48:02.909Z,4.67
2018-03-31T12:50:29.547Z,3.07
2018-03-31T12:52:56.188Z,5.00
2018-03-31T12:55:23.737Z,6.57
2018-03-31T12:57:50.362Z,4.27
2018-03-31T13:00:16.917Z,3.90
2018-03-31T13:02:44.296Z,4.87
2018-03-31T13:05:10.871Z,4.80
2018-03-31T13:07:38.416Z,4.70
2018-03-31T13:10:05.077Z,6.37
2018-03-31T13:12:31.911Z,4.17
2018-03-31T13:14:58.620Z,5.67
2018-03-31T13:17:25.162Z,2.83
2018-03-31T13:19:51.816Z,3.17
2018-03-31T13:22:18.605Z,5.23
2018-03-31T13:24:45.299Z,4.33
2018-03-31T13:27:12.141Z,3.97
2018-03-31T13:29:38.747Z,2.70
2018-03-31T13:32:06.050Z,3.47
2018-03-31T13:34:32.689Z,4.83
2018-03-31T13:36:59.244Z,6.50
2018-03-31T13:39:25.950Z,3.70
2018-03-31T13:41:52.592Z,4.57
2018-03-31T13:44:20.317Z,3.57
2018-03-31T13:46:46.973Z,4.53
2018-03-31T13:49:13.585Z,4.63
2018-03-31T13:51:40.910Z,5.33
2018-03-31T13:54:07.551Z,6.67
2018-03-31T13:56:34.276Z,9.00
2018-03-31T13:59:00.864Z,5.00
2018-03-31T14:01:28.461Z,4.33
2018-03-31T14:03:55.915Z,2.63
2018-03-31T14:06:22.945Z,5.50
2018-03-31T14:08:49.683Z,4.97
2018-03-31T14:11:16.241Z,5.77
2018-03-31T14:13:42.912Z,7.07
2018-03-31T14:16:09.537Z,4.60
2018-03-31T14:18:36.165Z,4.87
2018-03-31T14:21:02.762Z,6.03
2018-03-31T14:23:29.568Z,6.70
2018-03-31T14:25:56.259Z,4.90
2018-03-31T14:28:22.847Z,5.90
2018-03-31T14:30:49.462Z,9.13
2018-03-31T14:33:16.077Z,9.33
2018-03-31T14:35:42.728Z,11.50
2018-03-31T14:38:09.418Z,7.73
2018-03-31T14:40:37.085Z,9.07
2018-03-31T14:43:04.397Z,4.10
2018-03-31T14:45:31.027Z,6.20
2018-03-31T14:47:57.665Z,3.03
2018-03-31T14:50:24.213Z,3.80
2018-03-31T14:52:50.908Z,6.50
2018-03-31T14:55:17.565Z,3.57
2018-03-31T14:57:44.155Z,6.93
2018-03-31T15:00:10.792Z,5.70
2018-03-31T15:02:38.252Z,5.17
2018-03-31T15:05:05.590Z,7.77
2018-03-31T15:07:32.195Z,11.40
2018-03-31T15:09:58.818Z,12.70
2018-03-31T15:12:25.499Z,14.60
2018-03-31T15:14:52.069Z,9.23
2018-03-31T15:17:19.376Z,4.67
2018-03-31T15:19:46.001Z,6.33
2018-03-31T15:22:12.851Z,4.97
2018-03-31T15:24:39.460Z,10.77
2018-03-31T15:27:06.082Z,7.00
2018-03-31T15:29:33.415Z,4.30
2018-03-31T15:32:00.038Z,8.43
2018-03-31T15:34:26.889Z,15.13
2018-03-31T15:36:53.573Z,11.97
2018-03-31T15:39:20.155Z,10.80
2018-03-31T15:41:46.968Z,6.30
2018-03-31T15:44:13.679Z,5.50
2018-03-31T15:46:41.263Z,6.27
2018-03-31T15:49:07.845Z,6.50
2018-03-31T15:51:34.505Z,4.60
2018-03-31T15:54:01.841Z,7.13
2018-03-31T15:56:28.456Z,7.97
2018-03-31T15:58:55.016Z,9.00
2018-03-31T16:01:21.614Z,6.30
2018-03-31T16:03:48.361Z,4.20
2018-03-31T16:06:15.086Z,6.80
2018-03-31T16:08:41.692Z,4.93
2018-03-31T16:11:09.032Z,7.87
2018-03-31T16:13:35.633Z,5.97
2018-03-31T16:16:02.236Z,5.77
2018-03-31T16:18:29.074Z,8.33
2018-03-31T16:20:56.577Z,5.20
2018-03-31T16:23:23.374Z,5.80
2018-03-31T16:25:50.691Z,7.87
2018-03-31T16:28:17.542Z,7.27
2018-03-31T16:30:44.140Z,7.10
2018-03-31T16:33:10.817Z,7.50
2018-03-31T16:35:37.659Z,8.83
2018-03-31T16:38:04.315Z,9.10
2018-03-31T16:40:31.673Z,7.77
2018-03-31T16:42:59.041Z,9.30
2018-03-31T16:45:28.402Z,7.90
2018-03-31T16:47:54.988Z,11.43
2018-03-31T16:50:21.712Z,9.70
2018-03-31T16:52:49.061Z,8.13
2018-03-31T16:55:16.420Z,10.97
2018-03-31T16:57:43.826Z,9.67
2018-03-31T17:00:10.418Z,9.13
2018-03-31T17:02:37.959Z,6.97
2018-03-31T17:05:04.627Z,10.27
2018-03-31T17:07:32.171Z,7.87
2018-03-31T17:10:00.525Z,8.40
2018-03-31T17:12:27.104Z,10.53
2018-03-31T17:14:53.696Z,10.07
2018-03-31T17:17:20.309Z,7.70
2018-03-31T17:19:46.905Z,9.33
2018-03-31T17:22:14.251Z,9.57
2018-03-31T17:24:41.626Z,9.87
2018-03-31T17:27:09.025Z,8.23
2018-03-31T17:29:35.604Z,7.03
2018-03-31T17:32:03.047Z,8.20
2018-03-31T17:34:29.628Z,11.23
2018-03-31T17:36:56.470Z,8.83
2018-03-31T17:39:23.998Z,8.53
2018-03-31T17:41:50.581Z,9.80
2018-03-31T17:44:17.251Z,9.70
2018-03-31T17:46:44.223Z,11.93
2018-03-31T17:49:11.566Z,14.20
2018-03-31T17:51:38.276Z,12.50
2018-03-31T17:54:04.982Z,11.40
2018-03-31T17:56:31.606Z,13.37
2018-03-31T17:58:59.270Z,13.93
2018-03-31T18:01:26.145Z,16.00
2018-03-31T18:03:52.726Z,12.83
2018-03-31T18:06:19.373Z,11.60
2018-03-31T18:08:46.719Z,14.37
2018-03-31T18:11:13.294Z,11.47
2018-03-31T18:13:39.968Z,10.87
2018-03-31T18:16:06.566Z,7.87
2018-03-31T18:18:33.485Z,11.37
2018-03-31T18:21:00.453Z,13.47
2018-03-31T18:23:27.369Z,11.40
2018-03-31T18:25:54.164Z,12.93
2018-03-31T18:28:21.575Z,8.07
2018-03-31T18:30:48.951Z,9.87
2018-03-31T18:33:15.548Z,8.30
2018-03-31T18:35:42.383Z,7.73
2018-03-31T18:38:09.380Z,7.77
2018-03-31T18:40:35.994Z,7.53
2018-03-31T18:43:03.391Z,8.43
2018-03-31T18:45:30.573Z,9.13
2018-03-31T18:47:57.166Z,11.67
2018-03-31T18:50:23.815Z,10.60
2018-03-31T18:52:50.492Z,11.27
2018-03-31T18:55:17.410Z,9.43
2018-03-31T18:57:44.010Z,12.63
2018-03-31T19:00:11.319Z,5.93
2018-03-31T19:02:38.343Z,5.67
2018-03-31T19:05:04.923Z,7.57
2018-03-31T19:07:32.288Z,5.10
2018-03-31T19:09:59.654Z,5.77
2018-03-31T19:12:27.038Z,4.30
2018-03-31T19:14:53.608Z,8.00
2018-03-31T19:17:20.253Z,8.10
2018-03-31T19:19:46.872Z,5.17
2018-03-31T19:22:13.478Z,6.20
2018-03-31T19:24:44.652Z,6.90
2018-03-31T19:27:11.232Z,3.23
2018-03-31T19:29:37.994Z,4.23
2018-03-31T19:32:04.835Z,5.37
2018-03-31T19:34:32.462Z,5.43
2018-03-31T19:36:59.018Z,5.43
2018-03-31T19:39:30.902Z,4.17
2018-03-31T19:41:58.213Z,5.70
2018-03-31T19:44:25.015Z,8.43
2018-03-31T19:46:51.639Z,9.97
2018-03-31T19:49:18.253Z,8.70
2018-03-31T19:51:44.913Z,9.77
2018-03-31T19:54:11.518Z,11.13
2018-03-31T19:56:38.853Z,9.00
2018-03-31T19:59:05.795Z,11.67
2018-03-31T20:01:32.701Z,8.43
2018-03-31T20:03:59.342Z,7.13
2018-03-31T20:06:26.162Z,6.50
2018-03-31T20:08:53.585Z,9.00
2018-03-31T20:11:20.208Z,6.17
2018-03-31T20:13:46.790Z,9.20
2018-03-31T20:16:14.516Z,7.13
2018-03-31T20:18:41.193Z,7.40
2018-03-31T20:21:08.545Z,9.13
2018-03-31T20:23:35.972Z,10.43
2018-03-31T20:26:02.592Z,8.33
2018-03-31T20:28:29.170Z,10.67
2018-03-31T20:30:56.516Z,7.43
2018-03-31T20:33:23.535Z,11.13
2018-03-31T20:35:50.170Z,7.67
2018-03-31T20:38:23.408Z,10.07
2018-03-31T20:40:50.813Z,17.30
2018-03-31T20:43:17.617Z,22.40
2018-03-31T20:45:44.448Z,19.67
2018-03-31T20:48:11.785Z,18.93
2018-03-31T20:50:38.805Z,15.93
2018-03-31T20:53:05.538Z,13.53
2018-03-31T20:55:32.117Z,9.77
2018-03-31T20:57:58.671Z,9.53
2018-03-31T21:00:26.140Z,8.00
2018-03-31T21:02:53.734Z,6.57
2018-03-31T21:05:20.439Z,7.93
2018-03-31T21:07:47.094Z,8.13
2018-03-31T21:10:13.601Z,7.47
2018-03-31T21:12:40.984Z,10.13
2018-03-31T21:15:07.601Z,9.37
2018-03-31T21:17:34.940Z,7.97
2018-03-31T21:22:35.856Z,8.60
2018-03-31T21:25:02.550Z,9.27
2018-03-31T21:27:29.897Z,8.83
2018-03-31T21:29:57.413Z,7.80
2018-03-31T21:32:24.015Z,8.13
2018-03-31T21:34:50.581Z,8.97
2018-03-31T21:37:17.294Z,10.03
2018-03-31T21:39:43.901Z,9.43
2018-03-31T21:42:11.517Z,9.17
2018-03-31T21:44:38.244Z,9.83
2018-03-31T21:47:04.825Z,7.73
2018-03-31T21:49:31.525Z,11.53
2018-03-31T21:51:58.381Z,10.37
2018-03-31T21:54:24.944Z,11.10
2018-03-31T21:56:52.330Z,9.83
2018-03-31T21:59:19.929Z,10.27
2018-03-31T22:01:46.807Z,11.37
2018-03-31T22:04:13.601Z,10.47
2018-03-31T22:06:40.671Z,10.23
2018-03-31T22:09:07.388Z,10.47
2018-03-31T22:11:34.002Z,7.20
2018-03-31T22:14:05.832Z,8.13
2018-03-31T22:16:32.537Z,7.80
2018-03-31T22:18:59.260Z,11.50
2018-03-31T22:21:26.040Z,9.53
2018-03-31T22:23:52.892Z,10.23
2018-03-31T22:26:19.590Z,11.87
2018-03-31T22:28:46.230Z,12.60
2018-03-31T22:31:13.080Z,12.50
2018-03-31T22:33:39.734Z,9.87
2018-03-31T22:36:06.554Z,12.63
2018-03-31T22:38:33.128Z,10.63
2018-03-31T22:40:59.746Z,12.47
2018-03-31T22:43:26.502Z,10.97
2018-03-31T22:45:53.432Z,10.70
2018-03-31T22:48:20.249Z,10.83
2018-03-31T22:50:46.895Z,5.50
2018-03-31T22:53:13.492Z,7.13
2018-03-31T22:55:40.813Z,7.20
2018-03-31T22:58:07.500Z,7.00
2018-03-31T23:00:34.867Z,6.30
2018-03-31T23:03:02.380Z,5.10
2018-03-31T23:05:29.012Z,7.57
2018-03-31T23:07:55.673Z,5.83
2018-03-31T23:10:22.239Z,5.77
2018-03-31T23:12:48.880Z,4.63
2018-03-31T23:15:15.469Z,4.97
2018-03-31T23:17:42.148Z,4.83
2018-03-31T23:20:09.556Z,5.90
2018-03-31T23:22:36.303Z,4.23
2018-03-31T23:25:02.879Z,3.87
2018-03-31T23:27:30.244Z,5.40
2018-03-31T23:29:56.895Z,5.20
2018-03-31T23:32:23.483Z,4.67
2018-03-31T23:34:50.096Z,6.73
2018-03-31T23:37:16.660Z,7.57
2018-03-31T23:39:43.421Z,7.90
2018-03-31T23:42:10.756Z,6.43
2018-03-31T23:44:37.384Z,7.37
2018-03-31T23:47:04.066Z,5.93
2018-03-31T23:49:31.145Z,6.07
2018-03-31T23:51:57.718Z,5.73
2018-03-31T23:54:24.332Z,5.10
2018-03-31T23:56:50.918Z,7.83
2018-03-31T23:59:18.271Z,5.87
